Lincolnville, Kansas
Current Conditions -  °F | °C
As of 10:55 AM on Saturday 27 Dec 2014 (Local Time) from KEWK Reporting Station
Clear Clear  
Wind Chill: 17°   Ceiling: Unl
Heat Index: 27°   Visibility: 10mi
Dew Point: 14°   Wind: 10mph
Humidity: 59%   Direction: 340°NNW
Pressure: 30.34"   Gusts: NA
Location:  38.49°N, 96.96°W
Report Text: KEWK 271655Z AUTO 34009KT 10SM CLR M03/M10 A3034 RMK AO1
Loading
Personal Weather Stations






























Interactive Weather Map New forecast layout! Learn more

10-Day Weather Forecast

Advertisements
Track Severe Weather on mobile